Time;durP1;ratioP1;P1;durP2;ratioP2;P2;SDS_P1;SDS_P2;PMS_P1;PMS_P2;Temp;Humidity;BMP_temperature;BMP_pressure;BME280_temperature;BME280_humidity;BME280_pressure;Samples;Min_cycle;Max_cycle;Signal;HPM_P1;HPM_P2
2022/04/29 00:07:34;;;;;;;10.80;4.87;;;10.00;99.90;;;;;;21159154;28;20027;-76
2022/04/29 00:17:35;;;;;;;9.02;4.28;;;10.00;99.90;;;;;;21158611;28;20512;-77
2022/04/29 00:27:37;;;;;;;7.90;4.10;;;9.90;99.90;;;;;;21158339;28;20027;-76
2022/04/29 00:37:46;;;;;;;11.18;4.75;;;9.80;99.90;;;;;;21159753;28;20111;-76
2022/04/29 00:47:49;;;;;;;8.60;4.70;;;9.90;99.90;;;;;;21157298;28;20030;-77
2022/04/29 00:58:08;;;;;;;8.60;4.93;;;9.80;99.90;;;;;;21157465;28;20032;-76
2022/04/29 01:08:10;;;;;;;9.20;4.75;;;9.90;99.90;;;;;;21161852;28;20034;-76
2022/04/29 01:18:11;;;;;;;7.18;4.32;;;9.80;99.90;;;;;;21171061;28;20040;-76
2022/04/29 01:28:12;;;;;;;13.70;4.97;;;9.60;99.90;;;;;;21186945;27;20609;-76
2022/04/29 01:38:18;;;;;;;7.30;4.63;;;9.70;99.90;;;;;;21169636;28;20055;-76
2022/04/29 01:48:21;;;;;;;7.70;3.97;;;9.60;99.90;;;;;;21152014;28;20027;-76
2022/04/29 01:58:45;;;;;;;7.75;4.75;;;9.50;99.90;;;;;;21162883;28;20512;-76
2022/04/29 02:08:48;;;;;;;7.28;4.43;;;9.10;99.90;;;;;;21180618;28;20034;-77
2022/04/29 02:18:49;;;;;;;6.63;4.25;;;9.00;99.90;;;;;;21165976;28;20093;-76
2022/04/29 02:28:50;;;;;;;10.30;4.77;;;8.90;99.90;;;;;;21166683;28;20024;-76
2022/04/29 02:38:51;;;;;;;6.17;4.43;;;8.80;99.90;;;;;;21164996;28;20050;-76
2022/04/29 02:48:52;;;;;;;10.35;4.45;;;8.50;99.90;;;;;;21163872;28;20425;-76
2022/04/29 02:58:53;;;;;;;6.07;4.10;;;8.70;99.90;;;;;;21162685;28;20035;-76
2022/04/29 03:08:54;;;;;;;7.93;4.63;;;8.60;99.90;;;;;;21162135;28;20413;-77
2022/04/29 03:18:55;;;;;;;7.33;4.87;;;8.30;99.90;;;;;;21161088;28;20110;-76
2022/04/29 03:28:57;;;;;;;8.20;4.45;;;8.20;99.90;;;;;;21161774;28;20098;-76
2022/04/29 03:38:58;;;;;;;7.83;4.20;;;8.00;99.90;;;;;;21159543;28;20028;-76
2022/04/29 03:59:22;;;;;;;9.70;5.30;;;7.80;99.90;;;;;;21159413;28;20032;-76
2022/04/29 04:09:23;;;;;;;8.13;4.50;;;7.50;99.90;;;;;;21161016;27;20070;-76
2022/04/29 04:19:26;;;;;;;4.90;3.60;;;7.40;99.90;;;;;;21158315;28;20031;-76
2022/04/29 04:29:27;;;;;;;8.13;5.20;;;7.00;99.90;;;;;;21146607;28;20072;-76
2022/04/29 04:39:29;;;;;;;7.60;4.93;;;7.10;99.90;;;;;;21151128;28;20039;-76
2022/04/29 04:49:36;;;;;;;7.00;4.60;;;7.10;99.90;;;;;;21139836;28;20051;-76
2022/04/29 04:59:50;;;;;;;6.25;4.30;;;7.10;99.90;;;;;;21157477;28;20031;-77
2022/04/29 05:09:52;;;;;;;11.77;5.88;;;7.30;99.90;;;;;;21163636;28;20116;-76
2022/04/29 05:19:54;;;;;;;10.73;6.68;;;7.30;99.90;;;;;;21159940;28;20043;-76
2022/04/29 05:29:59;;;;;;;9.93;5.63;;;7.30;99.90;;;;;;21085918;28;20028;-76
2022/04/29 05:50:39;;;;;;;13.88;7.32;;;8.30;99.90;;;;;;21090728;28;20386;-75
2022/04/29 06:00:40;;;;;;;11.33;7.17;;;9.30;99.90;;;;;;21085154;28;20028;-75
2022/04/29 06:10:43;;;;;;;9.73;6.65;;;9.40;99.90;;;;;;21082881;28;20032;-76
2022/04/29 06:20:45;;;;;;;14.93;6.82;;;9.60;99.90;;;;;;21115545;27;20402;-76
2022/04/29 06:31:12;;;;;;;11.38;6.45;;;10.20;99.90;;;;;;21079521;27;20113;-75
2022/04/29 06:41:35;;;;;;;9.82;5.97;;;10.80;99.90;;;;;;21039186;28;20048;-76
2022/04/29 06:51:40;;;;;;;11.57;6.43;;;11.00;99.90;;;;;;21113474;27;20054;-75
2022/04/29 07:01:50;;;;;;;14.05;6.30;;;11.30;99.90;;;;;;21093802;28;20054;-75
2022/04/29 07:11:54;;;;;;;9.98;5.53;;;11.40;99.90;;;;;;21121013;27;20024;-75
2022/04/29 07:22:11;;;;;;;9.93;5.25;;;11.50;99.90;;;;;;21091728;28;20056;-75
2022/04/29 07:32:20;;;;;;;9.15;5.60;;;12.30;99.90;;;;;;21076250;28;20062;-76
2022/04/29 07:42:26;;;;;;;8.60;5.40;;;13.80;99.90;;;;;;21082469;28;20077;-75
2022/04/29 07:52:28;;;;;;;;;;;14.30;99.90;;;;;;21075767;28;20144;-74
2022/04/29 08:02:30;;;;;;;7.10;4.63;;;14.80;99.90;;;;;;21074969;28;19916;-75
2022/04/29 08:12:31;;;;;;;7.60;4.90;;;15.40;99.90;;;;;;21073280;28;20743;-75
2022/04/29 08:23:00;;;;;;;6.85;4.50;;;15.70;99.90;;;;;;21097731;27;20441;-75
2022/04/29 08:33:02;;;;;;;6.10;3.73;;;17.50;99.90;;;;;;21055247;28;20428;-75
2022/04/29 08:43:17;;;;;;;8.82;4.63;;;17.70;99.90;;;;;;21071840;28;20036;-75
2022/04/29 08:53:23;;;;;;;8.40;4.60;;;17.40;99.90;;;;;;21071727;28;20435;-75
2022/04/29 09:03:23;;;;;;;6.23;3.57;;;18.10;99.90;;;;;;21072971;28;20069;-75
2022/04/29 09:13:26;;;;;;;5.77;3.77;;;18.10;99.90;;;;;;21072333;28;20024;-75
2022/04/29 09:23:29;;;;;;;7.57;3.85;;;18.40;99.90;;;;;;21069705;28;20299;-75
2022/04/29 09:33:57;;;;;;;6.43;3.42;;;19.60;99.90;;;;;;21084241;28;20042;-75
2022/04/29 09:44:35;;;;;;;6.68;3.50;;;19.50;99.90;;;;;;21066814;28;20402;-75
2022/04/29 09:54:38;;;;;;;9.23;4.30;;;20.00;99.90;;;;;;21085015;28;20024;-75
2022/04/29 10:04:47;;;;;;;16.52;12.20;;;20.80;99.90;;;;;;21084176;28;20142;-75
2022/04/29 10:14:51;;;;;;;6.53;4.30;;;22.30;99.70;;;;;;21083362;28;20066;-75
2022/04/29 10:24:52;;;;;;;6.07;3.03;;;22.40;99.90;;;;;;21082330;28;20111;-75
2022/04/29 10:34:55;;;;;;;4.65;2.50;;;22.50;95.00;;;;;;21081646;28;20110;-76
2022/04/29 10:45:01;;;;;;;7.40;2.22;;;22.70;93.70;;;;;;21113749;27;20118;-75
2022/04/29 10:55:03;;;;;;;4.72;2.95;;;21.70;98.10;;;;;;21079932;28;20348;-76
2022/04/29 11:05:39;;;;;;;3.90;2.47;;;23.70;96.10;;;;;;21074791;28;20044;-75
2022/04/29 11:15:45;;;;;;;4.32;2.33;;;23.50;93.80;;;;;;21078193;28;20028;-75
2022/04/29 11:25:58;;;;;;;4.13;2.25;;;23.50;93.40;;;;;;21106220;27;20032;-76
2022/04/29 11:36:15;;;;;;;4.15;1.90;;;22.40;93.40;;;;;;21108209;27;20123;-76
2022/04/29 11:46:19;;;;;;;3.85;2.17;;;23.00;91.00;;;;;;21091737;28;20057;-76
2022/04/29 11:56:20;;;;;;;3.45;1.92;;;22.70;92.30;;;;;;21066452;28;20055;-76
2022/04/29 12:06:21;;;;;;;3.17;2.00;;;23.50;88.40;;;;;;21117630;28;20048;-76
2022/04/29 12:16:22;;;;;;;3.93;2.00;;;22.60;91.40;;;;;;21055748;28;20485;-75
2022/04/29 12:26:23;;;;;;;3.92;1.90;;;21.70;90.70;;;;;;21054915;28;20118;-75
2022/04/29 12:36:24;;;;;;;3.23;1.97;;;21.50;92.80;;;;;;21044286;28;20032;-76
2022/04/29 12:46:29;;;;;;;5.33;2.00;;;21.70;92.40;;;;;;21081615;28;20651;-76
2022/04/29 12:56:32;;;;;;;3.78;2.03;;;21.90;92.70;;;;;;21071334;28;20174;-76
2022/04/29 13:06:33;;;;;;;2.97;1.90;;;21.30;92.80;;;;;;21081324;28;20038;-75
2022/04/29 13:16:37;;;;;;;3.20;2.17;;;21.80;92.40;;;;;;21062084;28;20035;-76
2022/04/29 13:26:37;;;;;;;5.45;2.08;;;23.60;94.60;;;;;;21087202;28;20103;-76
2022/04/29 13:36:38;;;;;;;2.00;1.83;;;24.60;89.00;;;;;;21052497;28;20055;-74
2022/04/29 13:46:39;;;;;;;2.67;1.57;;;23.70;91.00;;;;;;21108412;28;20294;-75
2022/04/29 13:56:41;;;;;;;3.22;1.90;;;24.50;90.80;;;;;;21157235;28;20282;-75
2022/04/29 14:06:41;;;;;;;3.75;2.33;;;24.10;90.70;;;;;;21168231;28;20035;-74
2022/04/29 14:16:42;;;;;;;3.47;2.13;;;21.90;93.70;;;;;;21167167;28;20028;-74
2022/04/29 14:26:43;;;;;;;7.03;1.67;;;21.80;91.50;;;;;;21166982;28;20073;-75
2022/04/29 14:36:44;;;;;;;4.83;1.30;;;21.30;91.10;;;;;;21166102;28;20050;-75
2022/04/29 14:46:45;;;;;;;2.70;1.60;;;21.00;90.40;;;;;;21165547;28;20031;-75
2022/04/29 14:56:45;;;;;;;3.23;1.80;;;20.50;87.30;;;;;;21163352;28;20127;-74
2022/04/29 15:06:46;;;;;;;2.87;1.93;;;20.30;90.40;;;;;;21163874;28;20526;-75
2022/04/29 15:16:47;;;;;;;6.57;1.70;;;20.70;91.00;;;;;;21162731;28;20031;-74
2022/04/29 15:26:49;;;;;;;4.28;1.60;;;21.00;87.40;;;;;;21160888;28;20145;-74
2022/04/29 15:36:52;;;;;;;2.93;1.50;;;20.30;92.50;;;;;;21161531;28;20027;-74
2022/04/29 15:46:53;;;;;;;4.00;2.08;;;20.00;91.20;;;;;;21161106;28;20031;-75
2022/04/29 15:56:54;;;;;;;8.77;1.97;;;19.70;92.40;;;;;;21159896;28;20054;-74
2022/04/29 16:06:55;;;;;;;3.70;2.20;;;19.60;92.70;;;;;;21158011;28;20055;-74
2022/04/29 16:16:55;;;;;;;4.97;3.00;;;19.20;93.00;;;;;;21159492;28;20100;-74
2022/04/29 16:26:56;;;;;;;7.47;2.50;;;18.90;94.10;;;;;;21121330;28;20029;-75
2022/04/29 16:36:58;;;;;;;9.33;5.07;;;18.70;95.10;;;;;;21058845;28;20024;-74
2022/04/29 16:46:59;;;;;;;6.25;2.85;;;18.20;95.40;;;;;;21071221;28;20036;-74
2022/04/29 17:07:19;;;;;;;5.55;2.90;;;17.90;96.30;;;;;;21094449;22;20044;-82
2022/04/29 17:17:22;;;;;;;4.85;2.78;;;17.90;97.40;;;;;;21192130;22;20043;-74
2022/04/29 17:27:23;;;;;;;15.03;3.50;;;17.80;98.00;;;;;;21173754;27;20080;-75
2022/04/29 17:37:23;;;;;;;8.03;3.87;;;17.40;97.70;;;;;;21230707;27;20031;-76
2022/04/29 17:47:24;;;;;;;8.50;3.77;;;17.30;98.40;;;;;;21254879;27;20027;-75
2022/04/29 17:57:25;;;;;;;6.97;3.27;;;17.10;98.40;;;;;;21255240;27;20030;-75
2022/04/29 18:07:26;;;;;;;5.07;3.20;;;16.80;98.90;;;;;;21254051;27;20050;-75
2022/04/29 18:17:28;;;;;;;14.10;5.97;;;16.60;99.30;;;;;;21253787;27;20057;-75
2022/04/29 18:27:29;;;;;;;7.07;3.17;;;16.40;99.50;;;;;;21252997;27;20059;-75
2022/04/29 18:37:30;;;;;;;5.27;3.03;;;16.10;99.90;;;;;;21252510;27;20027;-76
2022/04/29 18:47:31;;;;;;;8.47;3.40;;;15.70;99.90;;;;;;21251883;27;20023;-75
2022/04/29 18:57:32;;;;;;;9.73;3.47;;;15.30;99.90;;;;;;21237392;27;20051;-75
2022/04/29 19:07:33;;;;;;;5.47;3.80;;;15.00;99.90;;;;;;21249799;27;20064;-75
2022/04/29 19:17:35;;;;;;;6.45;3.72;;;14.70;99.90;;;;;;21248523;27;20047;-75
2022/04/29 19:27:36;;;;;;;7.97;4.27;;;14.50;99.90;;;;;;21247618;27;20038;-76
2022/04/29 19:37:37;;;;;;;11.53;5.13;;;14.00;99.90;;;;;;21246962;27;20103;-75
2022/04/29 19:47:41;;;;;;;9.20;4.33;;;13.70;99.90;;;;;;21245934;27;20091;-75
2022/04/29 20:08:02;;;;;;;8.10;5.55;;;13.60;99.90;;;;;;21244736;27;20527;-75
2022/04/29 20:18:04;;;;;;;11.23;4.60;;;13.30;99.90;;;;;;21225524;27;20117;-75
2022/04/29 20:28:05;;;;;;;10.70;4.55;;;12.90;99.90;;;;;;21243682;27;20042;-76
2022/04/29 20:38:06;;;;;;;12.07;5.27;;;12.60;99.90;;;;;;21243363;27;20027;-75
2022/04/29 20:48:07;;;;;;;8.37;4.57;;;12.70;99.90;;;;;;21229798;28;20106;-75
2022/04/29 20:58:10;;;;;;;8.35;5.25;;;12.70;99.90;;;;;;21244430;28;20035;-75
2022/04/29 21:08:11;;;;;;;9.97;4.60;;;12.70;99.90;;;;;;21223559;28;20481;-75
2022/04/29 21:18:11;;;;;;;9.43;4.97;;;12.50;99.90;;;;;;21223978;28;20417;-75
2022/04/29 21:28:13;;;;;;;10.77;4.60;;;12.20;99.90;;;;;;21252598;27;20063;-76
2022/04/29 21:38:15;;;;;;;;;;;12.10;99.90;;;;;;21257249;27;20027;-75
2022/04/29 21:48:17;;;;;;;7.47;4.07;;;12.20;99.90;;;;;;21237303;27;20278;-75
2022/04/29 21:58:20;;;;;;;8.80;4.25;;;12.10;99.90;;;;;;21236063;27;20027;-75
2022/04/29 22:08:21;;;;;;;9.20;4.50;;;12.00;99.90;;;;;;21230138;27;20076;-75
2022/04/29 22:18:22;;;;;;;;;;;12.00;99.90;;;;;;21197693;27;20509;-76
2022/04/29 22:28:23;;;;;;;6.47;4.32;;;12.30;99.90;;;;;;21157973;27;19938;-76
2022/04/29 22:38:24;;;;;;;12.00;4.57;;;12.50;99.90;;;;;;21137099;27;20035;-76
2022/04/29 22:48:24;;;;;;;8.63;4.90;;;12.60;99.90;;;;;;21187894;27;20046;-76
2022/04/29 22:58:25;;;;;;;8.83;4.23;;;12.50;99.90;;;;;;21154601;27;20077;-76
2022/04/29 23:08:26;;;;;;;7.37;4.77;;;12.40;99.90;;;;;;21142676;22;20040;-77
2022/04/29 23:28:47;;;;;;;10.18;5.38;;;12.40;99.90;;;;;;20976356;28;20040;-79
2022/04/29 23:38:48;;;;;;;13.10;5.47;;;12.30;99.90;;;;;;21006286;28;20032;-79
2022/04/29 23:48:49;;;;;;;8.32;5.50;;;12.20;99.90;;;;;;21020404;28;20032;-77
2022/04/29 23:58:50;;;;;;;8.20;5.70;;;12.10;99.90;;;;;;21023241;28;20056;-78
